createdAt,value
2023-04-02T00:00:57.641Z,7.27
2023-04-02T00:01:57.729Z,7.30
2023-04-02T00:02:57.876Z,7.30
2023-04-02T00:03:57.777Z,7.34
2023-04-02T00:04:57.780Z,7.34
2023-04-02T00:05:57.864Z,7.30
2023-04-02T00:06:57.867Z,7.32
2023-04-02T00:07:57.872Z,7.35
2023-04-02T00:08:57.916Z,7.31
2023-04-02T00:09:57.929Z,7.29
2023-04-02T00:10:57.912Z,7.31
2023-04-02T00:11:57.982Z,7.31
2023-04-02T00:12:57.986Z,7.28
2023-04-02T00:13:58.016Z,7.29
2023-04-02T00:14:58.099Z,7.31
2023-04-02T00:15:58.206Z,7.34
2023-04-02T00:16:58.095Z,7.31
2023-04-02T00:17:58.177Z,7.31
2023-04-02T00:18:58.227Z,7.32
2023-04-02T00:19:58.287Z,7.30
2023-04-02T00:20:58.221Z,7.34
2023-04-02T00:21:58.229Z,7.36
2023-04-02T00:22:58.266Z,7.39
2023-04-02T00:23:58.316Z,7.39
2023-04-02T00:24:58.361Z,7.41
2023-04-02T00:25:58.372Z,7.40
2023-04-02T00:26:58.400Z,7.42
2023-04-02T00:27:58.412Z,7.42
2023-04-02T00:28:58.459Z,7.47
2023-04-02T00:29:58.472Z,7.45
2023-04-02T00:30:58.495Z,7.48
2023-04-02T00:31:58.547Z,7.47
2023-04-02T00:32:58.579Z,7.51
2023-04-02T00:33:58.620Z,7.52
2023-04-02T00:34:58.620Z,7.52
2023-04-02T00:35:58.686Z,7.50
2023-04-02T00:36:58.678Z,7.45
2023-04-02T00:37:58.706Z,7.43
2023-04-02T00:38:58.704Z,7.35
2023-04-02T00:39:58.753Z,7.38
2023-04-02T00:40:58.801Z,7.44
2023-04-02T00:41:58.843Z,7.43
2023-04-02T00:42:58.848Z,7.42
2023-04-02T00:43:58.831Z,7.36
2023-04-02T00:44:58.891Z,7.33
2023-04-02T00:45:58.940Z,7.32
2023-04-02T00:46:58.946Z,7.31
2023-04-02T00:47:59.020Z,7.22
2023-04-02T00:48:59.010Z,7.21
2023-04-02T00:49:59.081Z,7.15
2023-04-02T00:50:59.119Z,7.15
2023-04-02T00:51:59.146Z,7.12
2023-04-02T00:52:59.176Z,7.10
2023-04-02T00:53:59.187Z,7.12
2023-04-02T00:54:59.196Z,7.10
2023-04-02T00:55:59.232Z,7.13
2023-04-02T00:56:59.305Z,7.11
2023-04-02T00:57:59.287Z,7.08
2023-04-02T00:58:59.316Z,7.00
2023-04-02T00:59:59.381Z,7.01
2023-04-02T01:00:59.401Z,7.00
2023-04-02T01:01:59.392Z,7.05
2023-04-02T01:02:59.470Z,7.10
2023-04-02T01:03:59.468Z,7.11
2023-04-02T01:04:59.515Z,7.12
2023-04-02T01:05:59.560Z,7.13
2023-04-02T01:06:59.616Z,7.13
2023-04-02T01:07:59.635Z,7.01
2023-04-02T01:08:59.649Z,6.96
2023-04-02T01:09:59.676Z,6.95
2023-04-02T01:10:59.729Z,6.99
2023-04-02T01:11:59.766Z,7.00
2023-04-02T01:12:59.799Z,7.04
2023-04-02T01:13:59.814Z,7.02
2023-04-02T01:14:59.846Z,7.07
2023-04-02T01:15:59.928Z,7.10
2023-04-02T01:16:59.917Z,7.08
2023-04-02T01:17:59.979Z,7.09
2023-04-02T01:18:59.949Z,7.08
2023-04-02T01:19:59.949Z,7.11
2023-04-02T01:21:00.031Z,7.12
2023-04-02T01:22:00.011Z,7.15
2023-04-02T01:23:00.037Z,7.18
2023-04-02T01:24:00.048Z,7.22
2023-04-02T01:25:00.119Z,7.25
2023-04-02T01:26:00.093Z,7.26
2023-04-02T01:27:00.146Z,7.25
2023-04-02T01:28:00.139Z,7.26
2023-04-02T01:29:00.184Z,7.27
2023-04-02T01:30:00.188Z,7.16
2023-04-02T01:31:00.286Z,7.03
2023-04-02T01:32:00.249Z,7.00
2023-04-02T01:33:00.356Z,6.91
2023-04-02T01:34:00.346Z,6.87
2023-04-02T01:35:00.392Z,6.89
2023-04-02T01:36:00.478Z,6.88
2023-04-02T01:37:00.444Z,6.94
2023-04-02T01:38:00.450Z,6.98
2023-04-02T01:39:00.487Z,6.98
2023-04-02T01:40:00.490Z,6.97
2023-04-02T01:41:00.513Z,6.97
2023-04-02T01:42:00.540Z,7.01
2023-04-02T01:43:00.535Z,6.99
2023-04-02T01:44:00.579Z,6.97
2023-04-02T01:45:00.581Z,6.91
2023-04-02T01:46:00.649Z,6.88
2023-04-02T01:47:00.635Z,6.89
2023-04-02T01:48:00.729Z,6.91
2023-04-02T01:49:00.712Z,6.93
2023-04-02T01:50:00.757Z,6.96
2023-04-02T01:51:00.742Z,6.95
2023-04-02T01:52:00.834Z,6.84
2023-04-02T01:53:00.835Z,6.85
2023-04-02T01:54:00.895Z,6.85
2023-04-02T01:55:00.891Z,6.82
2023-04-02T01:56:00.942Z,6.86
2023-04-02T01:57:00.975Z,6.87
2023-04-02T01:58:00.974Z,6.86
2023-04-02T01:59:01.077Z,6.81
2023-04-02T02:00:01.051Z,6.81
2023-04-02T02:01:01.113Z,6.84
2023-04-02T02:02:01.138Z,6.85
2023-04-02T02:03:01.173Z,6.89
2023-04-02T02:04:01.106Z,6.91
2023-04-02T02:05:01.136Z,6.95
2023-04-02T02:06:01.179Z,6.97
2023-04-02T02:07:01.586Z,6.95
2023-04-02T02:08:01.267Z,6.98
2023-04-02T02:09:01.300Z,7.01
2023-04-02T02:10:01.353Z,7.02
2023-04-02T02:11:01.391Z,7.04
2023-04-02T02:12:01.409Z,7.04
2023-04-02T02:13:01.433Z,7.05
2023-04-02T02:14:01.479Z,7.04
2023-04-02T02:15:01.536Z,7.04
2023-04-02T02:16:01.541Z,7.07
2023-04-02T02:17:01.544Z,7.10
2023-04-02T02:18:01.578Z,7.14
2023-04-02T02:19:01.612Z,7.15
2023-04-02T02:20:01.633Z,7.15
2023-04-02T02:21:01.626Z,7.07
2023-04-02T02:22:01.660Z,6.97
2023-04-02T02:23:01.674Z,6.91
2023-04-02T02:24:01.707Z,6.92
2023-04-02T02:25:01.743Z,6.84
2023-04-02T02:26:01.774Z,6.82
2023-04-02T02:27:01.829Z,6.81
2023-04-02T02:28:01.855Z,6.83
2023-04-02T02:29:01.906Z,6.81
2023-04-02T02:30:01.922Z,6.82
2023-04-02T02:31:01.948Z,6.84
2023-04-02T02:32:01.986Z,6.83
2023-04-02T02:33:02.084Z,6.80
2023-04-02T02:34:02.039Z,6.78
2023-04-02T02:35:02.082Z,6.75
2023-04-02T02:36:02.160Z,6.72
2023-04-02T02:37:02.135Z,6.71
2023-04-02T02:38:02.162Z,6.68
2023-04-02T02:39:02.212Z,6.64
2023-04-02T02:40:02.252Z,6.62
2023-04-02T02:41:02.230Z,6.54
2023-04-02T02:42:02.269Z,6.49
2023-04-02T02:43:02.319Z,6.49
2023-04-02T02:44:02.331Z,6.53
2023-04-02T02:45:02.410Z,6.59
2023-04-02T02:46:02.467Z,6.62
2023-04-02T02:47:02.585Z,6.61
2023-04-02T02:48:02.493Z,6.64
2023-04-02T02:49:02.495Z,6.64
2023-04-02T02:50:02.489Z,6.68
2023-04-02T02:51:02.543Z,6.68
2023-04-02T02:52:02.540Z,6.72
2023-04-02T02:53:02.613Z,6.76
2023-04-02T02:54:02.638Z,6.78
2023-04-02T02:55:02.701Z,6.83
2023-04-02T02:56:02.764Z,6.89
2023-04-02T02:57:02.749Z,6.95
2023-04-02T02:58:02.772Z,6.99
2023-04-02T02:59:02.780Z,7.03
2023-04-02T03:00:02.787Z,7.02
2023-04-02T03:01:02.827Z,6.98
2023-04-02T03:02:02.842Z,6.93
2023-04-02T03:03:02.916Z,6.96
2023-04-02T03:04:03.053Z,6.97
2023-04-02T03:05:02.951Z,6.99
2023-04-02T03:06:02.999Z,6.96
2023-04-02T03:07:03.024Z,6.97
2023-04-02T03:08:03.069Z,6.95
2023-04-02T03:09:03.081Z,6.83
2023-04-02T03:10:03.111Z,6.83
2023-04-02T03:11:03.100Z,6.71
2023-04-02T03:12:03.153Z,6.66
2023-04-02T03:13:03.182Z,6.71
2023-04-02T03:14:03.225Z,6.74
2023-04-02T03:15:03.248Z,6.80
2023-04-02T03:16:03.383Z,6.81
2023-04-02T03:17:03.373Z,6.81
2023-04-02T03:18:03.421Z,6.79
2023-04-02T03:19:03.456Z,6.80
2023-04-02T03:20:03.486Z,6.78
2023-04-02T03:21:03.551Z,6.75
2023-04-02T03:22:03.562Z,6.76
2023-04-02T03:23:03.576Z,6.76
2023-04-02T03:24:03.591Z,6.74
2023-04-02T03:25:03.615Z,6.68
2023-04-02T03:26:03.655Z,6.63
2023-04-02T03:27:03.716Z,6.60
2023-04-02T03:28:03.741Z,6.64
2023-04-02T03:29:03.782Z,6.70
2023-04-02T03:30:03.780Z,6.75
2023-04-02T03:31:03.882Z,6.82
2023-04-02T03:32:03.789Z,6.86
2023-04-02T03:33:03.855Z,6.90
2023-04-02T03:34:03.921Z,6.94
2023-04-02T03:35:03.920Z,6.90
2023-04-02T03:36:03.962Z,6.88
2023-04-02T03:37:03.977Z,6.84
2023-04-02T03:38:03.985Z,6.83
2023-04-02T03:39:04.043Z,6.79
2023-04-02T03:40:04.040Z,6.69
2023-04-02T03:41:04.085Z,6.57
2023-04-02T03:42:04.122Z,6.48
2023-04-02T03:43:04.181Z,6.50
2023-04-02T03:44:04.154Z,6.53
2023-04-02T03:45:04.182Z,6.56
2023-04-02T03:46:04.292Z,6.60
2023-04-02T03:47:04.303Z,6.63
2023-04-02T03:48:04.324Z,6.67
2023-04-02T03:49:04.305Z,6.68
2023-04-02T03:50:04.351Z,6.70
2023-04-02T03:51:04.380Z,6.70
2023-04-02T03:52:04.394Z,6.74
2023-04-02T03:53:04.441Z,6.75
2023-04-02T03:54:04.458Z,6.74
2023-04-02T03:55:04.496Z,6.63
2023-04-02T03:56:04.490Z,6.60
2023-04-02T03:57:04.562Z,6.58
2023-04-02T03:58:04.533Z,6.55
2023-04-02T03:59:04.577Z,6.46
2023-04-02T04:00:04.631Z,6.41
2023-04-02T04:01:04.626Z,6.45
2023-04-02T04:02:04.716Z,6.47
2023-04-02T04:03:04.769Z,6.50
2023-04-02T04:04:04.773Z,6.53
2023-04-02T04:05:04.750Z,6.52
2023-04-02T04:06:04.745Z,6.53
2023-04-02T04:07:04.771Z,6.57
2023-04-02T04:08:04.774Z,6.53
2023-04-02T04:09:04.838Z,6.52
2023-04-02T04:10:04.985Z,6.51
2023-04-02T04:11:04.943Z,6.49
2023-04-02T04:12:04.936Z,6.47
2023-04-02T04:13:04.970Z,6.46
2023-04-02T04:14:05.041Z,6.45
2023-04-02T04:15:05.092Z,6.44
2023-04-02T04:16:05.220Z,6.43
2023-04-02T04:17:05.068Z,6.41
2023-04-02T04:18:05.117Z,6.39
2023-04-02T04:19:05.230Z,6.33
2023-04-02T04:20:05.177Z,6.34
2023-04-02T04:21:05.239Z,6.34
2023-04-02T04:22:05.248Z,6.33
2023-04-02T04:23:05.312Z,6.33
2023-04-02T04:24:05.311Z,6.26
2023-04-02T04:25:05.384Z,6.25
2023-04-02T04:26:05.425Z,6.26
2023-04-02T04:27:05.454Z,6.27
2023-04-02T04:28:05.703Z,6.27
2023-04-02T04:29:05.556Z,6.25
2023-04-02T04:30:05.576Z,6.29
2023-04-02T04:31:05.650Z,6.31
2023-04-02T04:32:05.641Z,6.33
2023-04-02T04:33:05.781Z,6.33
2023-04-02T04:34:05.667Z,6.32
2023-04-02T04:35:05.715Z,6.31
2023-04-02T04:36:05.750Z,6.30
2023-04-02T04:37:05.743Z,6.28
2023-04-02T04:38:05.768Z,6.28
2023-04-02T04:39:05.820Z,6.21
2023-04-02T04:40:05.828Z,6.22
2023-04-02T04:41:05.878Z,6.23
2023-04-02T04:42:05.903Z,6.22
2023-04-02T04:43:05.976Z,6.22
2023-04-02T04:44:05.979Z,6.23
2023-04-02T04:45:05.976Z,6.22
2023-04-02T04:46:06.018Z,6.24
2023-04-02T04:47:06.018Z,6.26
2023-04-02T04:48:06.083Z,6.23
2023-04-02T04:49:06.073Z,6.22
2023-04-02T04:50:06.169Z,6.20
2023-04-02T04:51:06.163Z,6.15
2023-04-02T04:52:06.203Z,6.13
2023-04-02T04:53:06.211Z,6.14
2023-04-02T04:54:06.262Z,6.05
2023-04-02T04:55:06.268Z,6.05
2023-04-02T04:56:18.756Z,6.07
2023-04-02T04:57:07.346Z,6.05
2023-04-02T04:58:06.302Z,6.06
2023-04-02T04:59:06.381Z,6.08
2023-04-02T05:00:06.312Z,6.08
2023-04-02T05:01:06.339Z,6.07
2023-04-02T05:02:06.306Z,6.00
2023-04-02T05:03:06.290Z,5.97
2023-04-02T05:04:06.260Z,5.95
2023-04-02T05:05:06.244Z,5.93
2023-04-02T05:06:06.260Z,5.89
2023-04-02T05:07:06.269Z,5.82
2023-04-02T05:08:06.284Z,5.81
2023-04-02T05:09:06.228Z,5.78
2023-04-02T05:10:06.202Z,5.70
2023-04-02T05:11:06.263Z,5.72
2023-04-02T05:12:06.275Z,5.71
2023-04-02T05:13:06.331Z,5.71
2023-04-02T05:14:06.356Z,5.74
2023-04-02T05:15:06.397Z,5.77
2023-04-02T05:16:06.441Z,5.81
2023-04-02T05:17:06.418Z,5.81
2023-04-02T05:18:06.509Z,5.80
2023-04-02T05:19:06.496Z,5.70
2023-04-02T05:20:06.519Z,5.67
2023-04-02T05:21:06.608Z,5.71
2023-04-02T05:22:06.568Z,5.71
2023-04-02T05:23:06.591Z,5.70
2023-04-02T05:24:06.645Z,5.70
2023-04-02T05:25:06.685Z,5.71
2023-04-02T05:26:06.737Z,5.73
2023-04-02T05:27:06.792Z,5.77
2023-04-02T05:28:06.814Z,5.84
2023-04-02T05:29:06.794Z,5.87
2023-04-02T05:30:06.862Z,5.92
2023-04-02T05:31:06.930Z,6.01
2023-04-02T05:32:06.911Z,6.03
2023-04-02T05:33:06.957Z,6.07
2023-04-02T05:34:06.937Z,6.05
2023-04-02T05:35:07.001Z,6.09
2023-04-02T05:36:07.050Z,6.10
2023-04-02T05:37:07.306Z,6.08
2023-04-02T05:38:07.117Z,6.12
2023-04-02T05:39:07.157Z,6.15
2023-04-02T05:40:07.186Z,6.16
2023-04-02T05:41:07.200Z,6.18
2023-04-02T05:42:07.261Z,6.19
2023-04-02T05:43:07.302Z,6.20
2023-04-02T05:44:07.352Z,6.27
2023-04-02T05:45:07.323Z,6.32
2023-04-02T05:46:07.388Z,6.37
2023-04-02T05:47:07.386Z,6.39
2023-04-02T05:48:07.460Z,6.39
2023-04-02T05:49:07.414Z,6.40
2023-04-02T05:50:07.451Z,6.41
2023-04-02T05:51:07.428Z,6.41
2023-04-02T05:52:07.471Z,6.33
2023-04-02T05:53:07.490Z,6.35
2023-04-02T05:54:07.545Z,6.40
2023-04-02T05:55:07.546Z,6.40
2023-04-02T05:56:07.635Z,6.42
2023-04-02T05:57:07.784Z,6.43
2023-04-02T05:59:08.660Z,6.32
2023-04-02T06:00:07.642Z,6.33
2023-04-02T06:01:07.685Z,6.35
2023-04-02T06:02:07.729Z,6.33
2023-04-02T06:03:07.880Z,6.37
2023-04-02T06:04:07.665Z,6.42
2023-04-02T06:05:07.624Z,6.42
2023-04-02T06:06:07.595Z,6.44
2023-04-02T06:07:07.624Z,6.46
2023-04-02T06:08:07.627Z,6.45
2023-04-02T06:09:07.593Z,6.40
2023-04-02T06:10:07.611Z,6.48
2023-04-02T06:11:07.589Z,6.50
2023-04-02T06:12:07.581Z,6.50
2023-04-02T06:13:07.580Z,6.51
2023-04-02T06:14:07.614Z,6.55
2023-04-02T06:15:07.606Z,6.48
2023-04-02T06:16:07.668Z,6.41
2023-04-02T06:17:07.707Z,6.35
2023-04-02T06:18:07.763Z,6.30
2023-04-02T06:19:07.746Z,6.34
2023-04-02T06:20:07.776Z,6.36
2023-04-02T06:21:07.820Z,6.42
2023-04-02T06:22:07.836Z,6.47
2023-04-02T06:23:07.838Z,6.51
2023-04-02T06:24:07.915Z,6.55
2023-04-02T06:25:07.933Z,6.60
2023-04-02T06:26:07.971Z,6.68
2023-04-02T06:27:07.991Z,6.73
2023-04-02T06:28:08.041Z,6.69
2023-04-02T06:29:08.098Z,6.69
2023-04-02T06:30:08.102Z,6.74
2023-04-02T06:31:08.138Z,6.81
2023-04-02T06:32:08.173Z,6.89
2023-04-02T06:33:08.180Z,6.99
2023-04-02T06:34:08.237Z,7.06
2023-04-02T06:35:08.217Z,7.16
2023-04-02T06:36:08.319Z,7.22
2023-04-02T06:37:08.321Z,7.27
2023-04-02T06:38:08.355Z,7.34
2023-04-02T06:39:08.390Z,7.41
2023-04-02T06:40:08.426Z,7.49
2023-04-02T06:41:08.492Z,7.57
2023-04-02T06:42:08.486Z,7.63
2023-04-02T06:43:08.551Z,7.66
2023-04-02T06:44:08.546Z,7.70
2023-04-02T06:45:08.564Z,7.75
2023-04-02T06:46:08.726Z,7.83
2023-04-02T06:47:08.600Z,7.87
2023-04-02T06:48:08.722Z,7.91
2023-04-02T06:49:08.664Z,7.92
2023-04-02T06:50:08.700Z,8.00
2023-04-02T06:51:08.739Z,8.05
2023-04-02T06:52:08.724Z,8.11
2023-04-02T06:53:08.741Z,8.13
2023-04-02T06:54:08.780Z,8.19
2023-04-02T06:55:08.881Z,8.27
2023-04-02T06:56:08.831Z,8.27
2023-04-02T06:57:08.882Z,8.26
2023-04-02T06:58:08.900Z,8.30
2023-04-02T06:59:08.936Z,8.36
2023-04-02T07:00:08.912Z,8.45
2023-04-02T07:01:09.003Z,8.55
2023-04-02T07:02:08.967Z,8.64
2023-04-02T07:03:09.068Z,8.70
2023-04-02T07:04:09.054Z,8.78
2023-04-02T07:05:09.269Z,8.83
2023-04-02T07:06:09.133Z,8.86
2023-04-02T07:07:09.143Z,8.92
2023-04-02T07:08:09.152Z,8.99
2023-04-02T07:09:09.186Z,9.07
2023-04-02T07:10:09.293Z,9.14
2023-04-02T07:11:09.265Z,9.23
2023-04-02T07:12:09.341Z,9.36
2023-04-02T07:13:09.344Z,9.42
2023-04-02T07:14:09.370Z,9.44
2023-04-02T07:15:09.387Z,9.48
2023-04-02T07:16:09.542Z,9.55
2023-04-02T07:17:09.489Z,9.59
2023-04-02T07:18:09.586Z,9.62
2023-04-02T07:19:09.559Z,9.73
2023-04-02T07:20:09.562Z,9.84
2023-04-02T07:21:09.598Z,9.89
2023-04-02T07:22:09.642Z,9.94
2023-04-02T07:23:09.690Z,10.00
2023-04-02T07:24:09.694Z,9.99
2023-04-02T07:25:09.720Z,9.97
2023-04-02T07:26:09.764Z,10.01
2023-04-02T07:27:09.801Z,10.10
2023-04-02T07:28:09.763Z,10.20
2023-04-02T07:29:09.852Z,10.30
2023-04-02T07:30:09.853Z,10.31
2023-04-02T07:31:09.916Z,10.32
2023-04-02T07:32:09.907Z,10.49
2023-04-02T07:33:09.990Z,10.56
2023-04-02T07:34:10.033Z,10.61
2023-04-02T07:35:10.059Z,10.68
2023-04-02T07:36:10.089Z,10.71
2023-04-02T07:37:10.106Z,10.74
2023-04-02T07:38:10.138Z,10.75
2023-04-02T07:39:10.187Z,10.80
2023-04-02T07:40:10.215Z,10.81
2023-04-02T07:41:10.265Z,10.86
2023-04-02T07:42:10.273Z,10.95
2023-04-02T07:43:10.320Z,10.97
2023-04-02T07:44:10.346Z,11.00
2023-04-02T07:45:10.355Z,11.07
2023-04-02T07:46:10.458Z,11.14
2023-04-02T07:47:10.466Z,11.20
2023-04-02T07:48:10.473Z,11.30
2023-04-02T07:49:10.497Z,11.50
2023-04-02T07:50:10.498Z,11.59
2023-04-02T07:51:10.535Z,11.66
2023-04-02T07:52:10.559Z,11.69
2023-04-02T07:53:10.573Z,11.82
2023-04-02T07:54:10.613Z,11.87
2023-04-02T07:55:10.632Z,11.95
2023-04-02T07:56:10.687Z,12.02
2023-04-02T07:57:10.748Z,12.08
2023-04-02T07:58:10.898Z,12.13
2023-04-02T07:59:10.944Z,12.17
2023-04-02T08:00:10.964Z,12.21
2023-04-02T08:01:11.022Z,12.26
2023-04-02T08:02:11.075Z,12.25
2023-04-02T08:03:11.113Z,12.31
2023-04-02T08:04:11.113Z,12.32
2023-04-02T08:05:11.049Z,12.29
2023-04-02T08:06:11.095Z,12.23
2023-04-02T08:07:11.120Z,12.20
2023-04-02T08:08:11.145Z,12.11
2023-04-02T08:09:11.225Z,12.29
2023-04-02T08:10:11.240Z,12.42
2023-04-02T08:11:11.278Z,12.60
2023-04-02T08:12:11.294Z,12.81
2023-04-02T08:13:11.341Z,12.84
2023-04-02T08:14:11.356Z,12.96
2023-04-02T08:15:11.408Z,13.07
2023-04-02T08:16:11.534Z,13.22
2023-04-02T08:17:11.576Z,13.29
2023-04-02T08:18:11.519Z,13.42
2023-04-02T08:19:11.544Z,13.56
2023-04-02T08:20:11.558Z,13.72
2023-04-02T08:21:11.613Z,13.73
2023-04-02T08:22:11.647Z,13.80
2023-04-02T08:23:11.669Z,13.75
2023-04-02T08:24:11.727Z,13.57
2023-04-02T08:25:11.776Z,13.36
2023-04-02T08:26:11.817Z,13.25
2023-04-02T08:27:11.863Z,13.00
2023-04-02T08:28:11.891Z,13.00
2023-04-02T08:29:11.934Z,12.96
2023-04-02T08:30:11.977Z,13.16
2023-04-02T08:31:12.057Z,13.39
2023-04-02T08:32:12.091Z,13.67
2023-04-02T08:33:12.131Z,13.79
2023-04-02T08:34:12.102Z,13.98
2023-04-02T08:35:12.113Z,14.01
2023-04-02T08:36:12.146Z,14.10
2023-04-02T08:37:12.164Z,14.16
2023-04-02T08:38:12.196Z,14.15
2023-04-02T08:39:12.242Z,14.17
2023-04-02T08:40:12.236Z,14.25
2023-04-02T08:41:12.243Z,14.36
2023-04-02T08:42:12.283Z,14.53
2023-04-02T08:43:12.321Z,14.76
2023-04-02T08:44:12.309Z,14.84
2023-04-02T08:45:24.207Z,14.95
2023-04-02T08:46:13.375Z,15.03
2023-04-02T08:47:12.383Z,14.82
2023-04-02T08:48:12.394Z,14.91
2023-04-02T08:49:12.365Z,15.01
2023-04-02T08:50:12.365Z,15.18
2023-04-02T08:51:12.335Z,15.21
2023-04-02T08:52:12.347Z,15.23
2023-04-02T08:53:12.312Z,15.34
2023-04-02T08:54:12.339Z,15.20
2023-04-02T08:55:12.343Z,14.98
2023-04-02T08:56:12.313Z,14.88
2023-04-02T08:57:12.345Z,14.86
2023-04-02T08:58:12.294Z,14.90
2023-04-02T08:59:12.252Z,14.74
2023-04-02T09:00:12.254Z,14.70
2023-04-02T09:01:12.260Z,15.06
2023-04-02T09:02:12.274Z,15.26
2023-04-02T09:03:12.299Z,15.35
2023-04-02T09:04:12.359Z,14.94
2023-04-02T09:05:12.626Z,14.98
2023-04-02T09:06:13.388Z,14.84
2023-04-02T09:07:12.506Z,15.13
2023-04-02T09:08:12.553Z,15.38
2023-04-02T09:09:12.627Z,15.66
2023-04-02T09:10:12.633Z,15.58
2023-04-02T09:11:12.671Z,15.06
2023-04-02T09:12:12.722Z,14.62
2023-04-02T09:13:12.745Z,14.53
2023-04-02T09:14:12.758Z,14.53
2023-04-02T09:15:12.771Z,15.01
2023-04-02T09:16:12.849Z,15.18
2023-04-02T09:17:12.823Z,15.45
2023-04-02T09:18:12.904Z,15.67
2023-04-02T09:19:12.893Z,15.94
2023-04-02T09:20:12.935Z,16.20
2023-04-02T09:21:12.976Z,16.31
2023-04-02T09:22:12.965Z,16.53
2023-04-02T09:23:13.018Z,16.66
2023-04-02T09:24:13.078Z,16.79
2023-04-02T09:25:13.081Z,17.05
2023-04-02T09:26:13.133Z,17.13
2023-04-02T09:27:13.175Z,17.22
2023-04-02T09:28:13.189Z,17.05
2023-04-02T09:29:13.305Z,17.16
2023-04-02T09:30:13.275Z,17.37
2023-04-02T09:31:13.396Z,17.48
2023-04-02T09:32:13.326Z,17.61
2023-04-02T09:33:13.341Z,17.80
2023-04-02T09:34:13.352Z,17.78
2023-04-02T09:35:24.783Z,17.61
2023-04-02T09:36:16.071Z,17.48
2023-04-02T09:37:13.370Z,17.43
2023-04-02T09:38:13.371Z,17.35
2023-04-02T09:39:13.366Z,17.57
2023-04-02T09:40:13.325Z,17.78
2023-04-02T09:41:13.334Z,17.89
2023-04-02T09:42:13.345Z,18.04
2023-04-02T09:43:13.349Z,18.16
2023-04-02T09:44:13.334Z,18.30
2023-04-02T09:45:13.312Z,18.22
2023-04-02T09:46:13.340Z,18.31
2023-04-02T09:47:13.313Z,18.50
2023-04-02T09:48:13.355Z,18.62
2023-04-02T09:49:13.288Z,18.66
2023-04-02T09:50:13.299Z,18.73
2023-04-02T09:51:13.310Z,18.69
2023-04-02T09:52:13.283Z,18.86
2023-04-02T09:53:13.264Z,18.92
2023-04-02T09:54:13.250Z,18.91
2023-04-02T09:55:13.227Z,18.76
2023-04-02T09:56:13.244Z,18.55
2023-04-02T09:57:13.292Z,18.29
2023-04-02T09:58:13.249Z,18.14
2023-04-02T09:59:13.231Z,18.00
2023-04-02T10:00:25.384Z,17.97
2023-04-02T10:01:14.230Z,18.03
2023-04-02T10:02:13.189Z,18.02
2023-04-02T10:03:13.177Z,17.90
2023-04-02T10:04:13.258Z,17.81
2023-04-02T10:05:13.716Z,17.78
2023-04-02T10:06:13.193Z,17.74
2023-04-02T10:07:13.202Z,17.73
2023-04-02T10:08:13.205Z,17.60
2023-04-02T10:09:13.124Z,17.53
2023-04-02T10:10:13.231Z,17.45
2023-04-02T10:11:13.153Z,17.35
2023-04-02T10:12:13.152Z,17.32
2023-04-02T10:13:13.207Z,17.16
2023-04-02T10:14:13.240Z,17.26
2023-04-02T10:15:13.240Z,17.17
2023-04-02T10:16:13.358Z,17.11
2023-04-02T10:17:13.502Z,16.99
2023-04-02T10:18:13.308Z,17.01
2023-04-02T10:19:13.327Z,17.03
2023-04-02T10:20:13.434Z,16.92
2023-04-02T10:21:13.352Z,16.74
2023-04-02T10:22:13.402Z,16.72
2023-04-02T10:23:13.445Z,16.54
2023-04-02T10:24:13.450Z,16.41
2023-04-02T10:25:13.468Z,16.45
2023-04-02T10:26:13.474Z,16.61
2023-04-02T10:27:13.568Z,16.77
2023-04-02T10:28:13.549Z,16.84
2023-04-02T10:29:13.580Z,16.94
2023-04-02T10:30:13.594Z,16.97
2023-04-02T10:31:13.670Z,16.96
2023-04-02T10:32:13.660Z,17.02
2023-04-02T10:33:13.690Z,17.10
2023-04-02T10:34:13.724Z,17.15
2023-04-02T10:35:13.752Z,17.26
2023-04-02T10:36:13.823Z,17.28
2023-04-02T10:37:13.848Z,17.02
2023-04-02T10:38:13.799Z,17.14
2023-04-02T10:39:13.856Z,17.29
2023-04-02T10:40:13.884Z,17.31
2023-04-02T10:41:13.900Z,17.37
2023-04-02T10:42:13.883Z,17.39
2023-04-02T10:43:13.940Z,17.37
2023-04-02T10:44:20.234Z,17.45
2023-04-02T10:45:14.922Z,17.51
2023-04-02T10:46:13.941Z,17.49
2023-04-02T10:47:13.927Z,17.50
2023-04-02T10:48:13.944Z,17.48
2023-04-02T10:49:13.928Z,17.51
2023-04-02T10:50:13.883Z,17.49
2023-04-02T10:51:14.191Z,17.52
2023-04-02T10:52:13.890Z,17.62
2023-04-02T10:53:13.844Z,17.66
2023-04-02T10:54:13.917Z,17.62
2023-04-02T10:55:13.859Z,17.57
2023-04-02T10:56:13.843Z,17.60
2023-04-02T10:57:13.887Z,17.62
2023-04-02T10:58:13.887Z,17.62
2023-04-02T10:59:13.903Z,17.54
2023-04-02T11:00:13.932Z,17.43
2023-04-02T11:01:13.965Z,17.40
2023-04-02T11:02:14.024Z,17.49
2023-04-02T11:03:14.150Z,17.54
2023-04-02T11:04:14.342Z,17.49
2023-04-02T11:05:14.165Z,17.54
2023-04-02T11:06:14.125Z,17.47
2023-04-02T11:07:14.988Z,17.46
2023-04-02T11:08:15.176Z,17.51
2023-04-02T11:09:14.199Z,17.48
2023-04-02T11:10:14.238Z,17.49
2023-04-02T11:11:14.315Z,17.52
2023-04-02T11:12:14.323Z,17.54
2023-04-02T11:13:14.338Z,17.58
2023-04-02T11:14:14.410Z,17.58
2023-04-02T11:15:14.421Z,17.51
2023-04-02T11:16:14.528Z,17.48
2023-04-02T11:17:14.453Z,17.51
2023-04-02T11:18:14.466Z,17.41
2023-04-02T11:19:14.531Z,17.27
2023-04-02T11:20:14.554Z,17.29
2023-04-02T11:21:14.582Z,17.32
2023-04-02T11:22:14.649Z,17.28
2023-04-02T11:23:14.655Z,17.25
2023-04-02T11:24:14.701Z,17.24
2023-04-02T11:25:14.742Z,17.08
2023-04-02T11:26:14.786Z,17.00
2023-04-02T11:27:14.822Z,16.88
2023-04-02T11:28:14.828Z,16.87
2023-04-02T11:29:14.855Z,16.84
2023-04-02T11:30:14.878Z,16.89
2023-04-02T11:31:15.013Z,16.81
2023-04-02T11:32:15.001Z,16.83
2023-04-02T11:33:18.660Z,16.88
2023-04-02T11:34:16.022Z,16.87
2023-04-02T11:35:15.016Z,16.79
2023-04-02T11:36:15.076Z,16.69
2023-04-02T11:37:14.990Z,16.71
2023-04-02T11:38:15.002Z,16.64
2023-04-02T11:39:17.419Z,16.57
2023-04-02T11:40:15.157Z,16.62
2023-04-02T11:41:15.233Z,16.63
2023-04-02T11:42:15.232Z,16.56
2023-04-02T11:43:15.245Z,16.60
2023-04-02T11:44:15.323Z,16.67
2023-04-02T11:45:15.347Z,16.48
2023-04-02T11:46:15.406Z,16.43
2023-04-02T11:47:15.394Z,16.47
2023-04-02T11:48:15.466Z,16.35
2023-04-02T11:49:15.473Z,16.32
2023-04-02T11:50:15.500Z,16.29
2023-04-02T11:51:15.492Z,16.28
2023-04-02T11:52:15.544Z,16.33
2023-04-02T11:53:15.543Z,16.28
2023-04-02T11:54:15.645Z,16.21
2023-04-02T11:55:15.626Z,16.22
2023-04-02T11:56:15.666Z,16.19
2023-04-02T11:57:15.798Z,16.25
2023-04-02T11:58:15.747Z,16.24
2023-04-02T11:59:15.763Z,16.23
2023-04-02T12:00:17.968Z,16.17
2023-04-02T12:01:15.860Z,16.04
2023-04-02T12:02:15.891Z,15.98
2023-04-02T12:03:15.997Z,15.92
2023-04-02T12:04:15.914Z,15.96
2023-04-02T12:05:15.962Z,16.00
2023-04-02T12:06:15.995Z,16.03
2023-04-02T12:07:16.038Z,16.09
2023-04-02T12:08:16.049Z,16.09
2023-04-02T12:09:16.123Z,15.93
2023-04-02T12:10:16.112Z,15.82
2023-04-02T12:11:16.133Z,15.79
2023-04-02T12:12:16.159Z,15.78
2023-04-02T12:13:16.217Z,15.83
2023-04-02T12:14:16.245Z,15.90
2023-04-02T12:15:16.289Z,15.89
2023-04-02T12:16:16.332Z,15.85
2023-04-02T12:17:16.449Z,15.70
2023-04-02T12:18:16.384Z,15.77
2023-04-02T12:19:16.415Z,15.75
2023-04-02T12:20:16.435Z,15.80
2023-04-02T12:21:16.496Z,15.90
2023-04-02T12:22:16.556Z,15.93
2023-04-02T12:23:16.613Z,16.01
2023-04-02T12:24:16.616Z,16.03
2023-04-02T12:25:16.617Z,15.99
2023-04-02T12:26:16.692Z,16.08
2023-04-02T12:27:16.712Z,16.14
2023-04-02T12:28:16.745Z,16.13
2023-04-02T12:29:16.788Z,15.99
2023-04-02T12:30:16.789Z,15.62
2023-04-02T12:31:16.944Z,15.39
2023-04-02T12:32:16.870Z,15.41
2023-04-02T12:33:16.923Z,15.55
2023-04-02T12:34:16.952Z,15.58
2023-04-02T12:35:16.941Z,15.51
2023-04-02T12:36:17.083Z,15.41
2023-04-02T12:37:17.019Z,15.48
2023-04-02T12:38:17.042Z,15.52
2023-04-02T12:39:17.093Z,15.60
2023-04-02T12:40:17.149Z,15.61
2023-04-02T12:41:17.151Z,15.67
2023-04-02T12:42:17.213Z,15.75
2023-04-02T12:43:17.215Z,15.79
2023-04-02T12:44:17.264Z,15.82
2023-04-02T12:45:17.230Z,15.77
2023-04-02T12:46:17.304Z,15.80
2023-04-02T12:47:17.309Z,15.90
2023-04-02T12:48:17.312Z,15.95
2023-04-02T12:49:17.321Z,15.98
2023-04-02T12:50:17.346Z,16.06
2023-04-02T12:51:17.719Z,16.02
2023-04-02T12:52:17.377Z,16.07
2023-04-02T12:53:17.440Z,16.08
2023-04-02T12:54:17.473Z,15.82
2023-04-02T12:55:17.459Z,15.79
2023-04-02T12:56:17.535Z,15.74
2023-04-02T12:57:17.584Z,15.69
2023-04-02T12:58:17.560Z,15.71
2023-04-02T12:59:17.598Z,15.74
2023-04-02T13:00:17.615Z,15.77
2023-04-02T13:01:17.653Z,15.79
2023-04-02T13:02:17.671Z,15.79
2023-04-02T13:03:17.884Z,15.75
2023-04-02T13:04:17.949Z,15.74
2023-04-02T13:05:17.803Z,15.74
2023-04-02T13:06:17.848Z,15.79
2023-04-02T13:07:17.862Z,15.62
2023-04-02T13:08:17.916Z,15.59